createdAt,value
2019-05-01T00:00:29.677Z,97816.00
2019-05-01T00:03:06.246Z,97830.00
2019-05-01T00:05:40.297Z,97820.00
2019-05-01T00:08:11.469Z,97828.00
2019-05-01T00:10:41.453Z,97816.00
2019-05-01T00:13:11.152Z,97807.00
2019-05-01T00:15:41.532Z,97804.00
2019-05-01T00:18:10.969Z,97800.00
2019-05-01T00:20:40.357Z,97804.00
2019-05-01T00:23:10.901Z,97810.00
2019-05-01T00:25:40.278Z,97809.00
2019-05-01T00:28:10.492Z,97791.00
2019-05-01T00:30:40.090Z,97795.00
2019-05-01T00:33:09.483Z,97787.00
2019-05-01T00:35:39.511Z,97807.00
2019-05-01T00:38:08.875Z,97793.00
2019-05-01T00:40:38.990Z,97784.00
2019-05-01T00:43:08.385Z,97780.00
2019-05-01T00:45:37.733Z,97779.00
2019-05-01T00:48:07.125Z,97775.00
2019-05-01T00:50:36.529Z,97775.00
2019-05-01T00:53:05.902Z,97788.00
2019-05-01T00:55:39.666Z,97779.00
2019-05-01T00:58:26.871Z,97777.00
2019-05-01T01:01:04.040Z,97778.00
2019-05-01T01:03:33.790Z,97780.00
2019-05-01T01:06:04.783Z,97781.00
2019-05-01T01:08:34.434Z,97786.00
2019-05-01T01:11:03.810Z,97775.00
2019-05-01T01:13:33.173Z,97776.00
2019-05-01T01:16:02.638Z,97776.00
2019-05-01T01:18:32.016Z,97761.00
2019-05-01T01:21:01.465Z,97754.00
2019-05-01T01:23:31.387Z,97762.00
2019-05-01T01:26:02.924Z,97759.00
2019-05-01T01:28:32.375Z,97758.00
2019-05-01T01:31:01.771Z,97749.00
2019-05-01T01:33:31.128Z,97739.00
2019-05-01T01:36:01.062Z,97740.00
2019-05-01T01:38:30.688Z,97738.00
2019-05-01T01:41:00.209Z,97755.00
2019-05-01T01:43:47.809Z,97752.00
2019-05-01T01:46:19.073Z,97752.00
2019-05-01T01:48:51.719Z,97747.00
2019-05-01T01:51:21.771Z,97743.00
2019-05-01T02:14:53.734Z,97733.00
2019-05-01T02:17:23.124Z,97733.00
2019-05-01T02:19:52.489Z,97726.00
2019-05-01T02:22:21.867Z,97737.00
2019-05-01T02:24:51.238Z,97741.00
2019-05-01T02:27:25.709Z,97733.00
2019-05-01T02:29:57.319Z,97729.00
2019-05-01T02:32:29.334Z,97738.00
2019-05-01T02:35:00.691Z,97723.00
2019-05-01T02:37:32.359Z,97716.00
2019-05-01T02:40:06.481Z,97722.00
2019-05-01T02:42:40.104Z,97720.00
2019-05-01T02:45:10.165Z,97730.00
2019-05-01T02:47:40.262Z,97717.00
2019-05-01T02:50:12.601Z,97717.00
2019-05-01T02:52:44.587Z,97710.00
2019-05-01T02:55:16.330Z,97715.00
2019-05-01T02:57:47.553Z,97724.00
2019-05-01T03:00:17.508Z,97720.00
2019-05-01T03:02:47.514Z,97720.00
2019-05-01T03:05:17.480Z,97725.00
2019-05-01T03:07:47.507Z,97726.00
2019-05-01T03:10:17.999Z,97721.00
2019-05-01T03:12:50.095Z,97717.00
2019-05-01T03:15:22.669Z,97723.00
2019-05-01T03:17:59.950Z,97706.00
2019-05-01T03:20:33.975Z,97710.00
2019-05-01T03:23:21.756Z,97714.00
2019-05-01T03:25:51.886Z,97710.00
2019-05-01T03:28:22.846Z,97703.00
2019-05-01T03:30:52.319Z,97708.00
2019-05-01T03:33:21.907Z,97696.00
2019-05-01T03:35:51.617Z,97704.00
2019-05-01T03:38:21.306Z,97711.00
2019-05-01T03:40:51.048Z,97707.00
2019-05-01T03:43:21.418Z,97698.00
2019-05-01T03:45:52.046Z,97702.00
2019-05-01T03:48:21.751Z,97691.00
2019-05-01T03:50:51.495Z,97691.00
2019-05-01T03:53:21.162Z,97691.00
2019-05-01T03:55:50.657Z,97689.00
2019-05-01T03:58:20.676Z,97695.00
2019-05-01T04:00:58.594Z,97688.00
2019-05-01T04:03:30.166Z,97694.00
2019-05-01T04:06:00.007Z,97699.00
2019-05-01T04:08:29.963Z,97699.00
2019-05-01T04:10:59.755Z,97691.00
2019-05-01T04:13:29.217Z,97695.00
2019-05-01T04:16:00.315Z,97696.00
2019-05-01T04:18:30.435Z,97698.00
2019-05-01T04:20:59.878Z,97691.00
2019-05-01T04:23:29.505Z,97703.00
2019-05-01T04:25:58.952Z,97690.00
2019-05-01T04:28:31.078Z,97704.00
2019-05-01T04:31:06.699Z,97696.00
2019-05-01T04:33:38.206Z,97701.00
2019-05-01T04:36:10.348Z,97696.00
2019-05-01T04:38:39.992Z,97695.00
2019-05-01T04:41:09.428Z,97707.00
2019-05-01T04:43:39.311Z,97697.00
2019-05-01T04:46:09.594Z,97692.00
2019-05-01T04:48:39.343Z,97686.00
2019-05-01T04:51:09.009Z,97710.00
2019-05-01T04:53:39.060Z,97709.00
2019-05-01T04:56:08.499Z,97703.00
2019-05-01T04:58:38.136Z,97700.00
2019-05-01T05:01:07.736Z,97693.00
2019-05-01T05:03:37.729Z,97700.00
2019-05-01T05:06:07.910Z,97698.00
2019-05-01T05:08:37.797Z,97694.00
2019-05-01T05:11:26.953Z,97696.00
2019-05-01T05:14:13.386Z,97710.00
2019-05-01T05:16:47.511Z,97690.00
2019-05-01T05:19:17.019Z,97716.00
2019-05-01T05:21:46.566Z,97696.00
2019-05-01T05:24:16.168Z,97694.00
2019-05-01T05:26:46.438Z,97713.00
2019-05-01T05:29:19.602Z,97705.00
2019-05-01T05:31:51.569Z,97703.00
2019-05-01T05:34:25.294Z,97702.00
2019-05-01T05:36:59.474Z,97696.00
2019-05-01T05:39:38.459Z,97698.00
2019-05-01T05:42:09.454Z,97716.00
2019-05-01T05:44:39.155Z,97706.00
2019-05-01T05:47:13.333Z,97705.00
2019-05-01T05:49:42.903Z,97708.00
2019-05-01T05:52:17.331Z,97702.00
2019-05-01T05:55:00.636Z,97701.00
2019-05-01T05:57:38.347Z,97710.00
2019-05-01T06:00:13.099Z,97696.00
2019-05-01T06:02:52.043Z,97698.00
2019-05-01T06:05:30.205Z,97688.00
2019-05-01T06:08:10.885Z,97694.00
2019-05-01T06:10:44.472Z,97695.00
2019-05-01T06:13:17.997Z,97701.00
2019-05-01T06:15:49.289Z,97689.00
2019-05-01T06:18:20.358Z,97694.00
2019-05-01T06:20:51.710Z,97681.00
2019-05-01T06:23:34.000Z,97692.00
2019-05-01T06:26:09.046Z,97704.00
2019-05-01T06:28:38.596Z,97688.00
2019-05-01T06:31:22.918Z,97693.00
2019-05-01T06:33:53.125Z,97695.00
2019-05-01T06:36:23.883Z,97692.00
2019-05-01T06:38:53.431Z,97697.00
2019-05-01T06:41:28.809Z,97684.00
2019-05-01T06:44:16.322Z,97685.00
2019-05-01T06:46:48.478Z,97681.00
2019-05-01T06:49:32.754Z,97694.00
2019-05-01T06:52:05.531Z,97691.00
2019-05-01T06:54:36.751Z,97694.00
2019-05-01T06:57:07.958Z,97684.00
2019-05-01T06:59:40.950Z,97681.00
2019-05-01T07:02:16.105Z,97688.00
2019-05-01T07:04:49.606Z,97682.00
2019-05-01T07:07:25.820Z,97676.00
2019-05-01T07:09:56.159Z,97676.00
2019-05-01T07:12:30.059Z,97672.00
2019-05-01T07:14:59.968Z,97672.00
2019-05-01T07:17:30.154Z,97672.00
2019-05-01T07:20:12.028Z,97675.00
2019-05-01T07:22:42.161Z,97673.00
2019-05-01T07:25:11.451Z,97674.00
2019-05-01T07:27:40.894Z,97661.00
2019-05-01T07:30:20.760Z,97665.00
2019-05-01T07:32:50.560Z,97663.00
2019-05-01T07:35:20.124Z,97653.00
2019-05-01T07:37:50.663Z,97663.00
2019-05-01T07:40:28.936Z,97659.00
2019-05-01T07:42:57.638Z,97656.00
2019-05-01T07:45:31.856Z,97657.00
2019-05-01T07:48:05.573Z,97648.00
2019-05-01T07:50:35.517Z,97658.00
2019-05-01T07:53:05.887Z,97659.00
2019-05-01T07:55:38.714Z,97667.00
2019-05-01T07:58:15.214Z,97653.00
2019-05-01T08:00:52.733Z,97661.00
2019-05-01T08:03:22.484Z,97644.00
2019-05-01T08:05:51.857Z,97663.00
2019-05-01T08:08:21.233Z,97655.00
2019-05-01T08:10:50.594Z,97662.00
2019-05-01T08:13:19.962Z,97653.00
2019-05-01T08:15:51.220Z,97655.00
2019-05-01T08:18:24.013Z,97657.00
2019-05-01T08:20:57.780Z,97668.00
2019-05-01T08:23:27.820Z,97664.00
2019-05-01T08:25:57.225Z,97646.00
2019-05-01T08:28:44.377Z,97657.00
2019-05-01T08:31:27.746Z,97660.00
2019-05-01T08:33:58.279Z,97656.00
2019-05-01T08:36:27.649Z,97652.00
2019-05-01T08:38:57.082Z,97666.00
2019-05-01T08:41:31.306Z,97660.00
2019-05-01T08:43:57.861Z,97659.00
2019-05-01T08:46:46.740Z,97662.00
2019-05-01T08:49:25.426Z,97660.00
2019-05-01T08:51:55.489Z,97654.00
2019-05-01T08:54:28.859Z,97655.00
2019-05-01T08:56:58.197Z,97649.00
2019-05-01T08:59:27.104Z,97656.00
2019-05-01T09:02:08.847Z,97659.00
2019-05-01T09:04:30.433Z,97649.00
2019-05-01T09:06:59.180Z,97641.00
2019-05-01T09:09:29.256Z,97650.00
2019-05-01T09:11:58.625Z,97642.00
2019-05-01T09:14:29.779Z,97646.00
2019-05-01T09:16:59.129Z,97657.00
2019-05-01T09:19:28.509Z,97648.00
2019-05-01T09:21:57.976Z,97650.00
2019-05-01T09:24:28.296Z,97640.00
2019-05-01T09:27:13.703Z,97642.00
2019-05-01T09:29:46.919Z,97641.00
2019-05-01T09:32:18.650Z,97645.00
2019-05-01T09:34:47.274Z,97645.00
2019-05-01T09:37:16.730Z,97635.00
2019-05-01T09:39:47.418Z,97638.00
2019-05-01T09:42:22.769Z,97633.00
2019-05-01T09:44:48.783Z,97637.00
2019-05-01T09:47:18.317Z,97633.00
2019-05-01T09:49:48.860Z,97644.00
2019-05-01T09:52:26.418Z,97629.00
2019-05-01T09:54:57.453Z,97638.00
2019-05-01T09:57:26.843Z,97630.00
2019-05-01T09:59:56.212Z,97639.00
2019-05-01T10:02:26.343Z,97615.00
2019-05-01T10:04:55.701Z,97628.00
2019-05-01T10:07:28.833Z,97619.00
2019-05-01T10:09:56.291Z,97621.00
2019-05-01T10:12:25.735Z,97624.00
2019-05-01T10:14:55.195Z,97622.00
2019-05-01T10:17:24.601Z,97611.00
2019-05-01T10:19:53.990Z,97627.00
2019-05-01T10:22:23.458Z,97620.00
2019-05-01T10:24:52.998Z,97607.00
2019-05-01T10:27:24.031Z,97617.00
2019-05-01T10:30:10.914Z,97610.00
2019-05-01T10:32:52.847Z,97611.00
2019-05-01T10:35:42.369Z,97608.00
2019-05-01T10:38:04.775Z,97609.00
2019-05-01T10:40:34.964Z,97613.00
2019-05-01T10:43:05.352Z,97603.00
2019-05-01T10:45:34.724Z,97594.00
2019-05-01T10:48:06.126Z,97590.00
2019-05-01T10:50:35.519Z,97591.00
2019-05-01T10:53:04.891Z,97589.00
2019-05-01T10:55:34.279Z,97600.00
2019-05-01T10:58:04.030Z,97593.00
2019-05-01T11:00:35.919Z,97583.00
2019-05-01T11:03:05.281Z,97592.00
2019-05-01T11:05:34.708Z,97586.00
2019-05-01T11:08:04.401Z,97565.00
2019-05-01T11:10:33.766Z,97583.00
2019-05-01T11:13:03.159Z,97580.00
2019-05-01T11:15:32.580Z,97580.00
2019-05-01T11:18:01.975Z,97581.00
2019-05-01T11:20:34.353Z,97563.00
2019-05-01T11:23:03.726Z,97560.00
2019-05-01T11:25:33.364Z,97556.00
2019-05-01T11:28:02.840Z,97561.00
2019-05-01T11:30:32.288Z,97553.00
2019-05-01T11:33:08.996Z,97559.00
2019-05-01T11:35:49.112Z,97549.00
2019-05-01T11:38:23.121Z,97555.00
2019-05-01T11:40:54.168Z,97546.00
2019-05-01T11:43:23.574Z,97541.00
2019-05-01T11:45:53.040Z,97540.00
2019-05-01T11:48:25.022Z,97548.00
2019-05-01T11:50:54.135Z,97543.00
2019-05-01T11:53:23.511Z,97550.00
2019-05-01T11:55:52.887Z,97547.00
2019-05-01T11:58:22.289Z,97547.00
2019-05-01T12:00:53.304Z,97537.00
2019-05-01T12:03:22.685Z,97548.00
2019-05-01T12:05:52.803Z,97545.00
2019-05-01T12:08:22.191Z,97537.00
2019-05-01T12:10:51.572Z,97541.00
2019-05-01T12:13:20.948Z,97536.00
2019-05-01T12:15:51.969Z,97537.00
2019-05-01T12:18:21.340Z,97535.00
2019-05-01T12:20:50.746Z,97531.00
2019-05-01T12:23:20.219Z,97537.00
2019-05-01T12:25:49.607Z,97518.00
2019-05-01T12:28:18.988Z,97527.00
2019-05-01T12:30:48.372Z,97520.00
2019-05-01T12:33:17.841Z,97527.00
2019-05-01T12:35:48.882Z,97528.00
2019-05-01T12:38:18.257Z,97510.00
2019-05-01T12:40:49.284Z,97513.00
2019-05-01T12:43:18.683Z,97515.00
2019-05-01T12:45:49.707Z,97516.00
2019-05-01T12:48:19.073Z,97505.00
2019-05-01T12:50:50.101Z,97509.00
2019-05-01T12:53:22.669Z,97516.00
2019-05-01T12:56:09.013Z,97499.00
2019-05-01T12:58:38.383Z,97501.00
2019-05-01T13:01:07.749Z,97497.00
2019-05-01T13:03:37.170Z,97494.00
2019-05-01T13:06:06.548Z,97496.00
2019-05-01T13:08:37.506Z,97490.00
2019-05-01T13:11:06.946Z,97494.00
2019-05-01T13:13:36.313Z,97484.00
2019-05-01T13:16:05.827Z,97491.00
2019-05-01T13:18:35.229Z,97485.00
2019-05-01T13:21:04.622Z,97490.00
2019-05-01T13:23:33.996Z,97486.00
2019-05-01T13:26:05.087Z,97483.00
2019-05-01T13:28:48.259Z,97484.00
2019-05-01T13:31:28.182Z,97486.00
2019-05-01T13:33:57.559Z,97479.00
2019-05-01T13:36:27.680Z,97458.00
2019-05-01T13:38:57.057Z,97468.00
2019-05-01T13:41:26.432Z,97479.00
2019-05-01T13:43:55.903Z,97465.00
2019-05-01T13:46:25.293Z,97470.00
2019-05-01T13:48:54.746Z,97466.00
2019-05-01T13:51:24.118Z,97445.00
2019-05-01T13:53:53.561Z,97453.00
2019-05-01T13:56:23.501Z,97445.00
2019-05-01T13:58:52.859Z,97444.00
2019-05-01T14:01:22.496Z,97471.00
2019-05-01T14:03:51.880Z,97449.00
2019-05-01T14:06:21.344Z,97449.00
2019-05-01T14:08:50.746Z,97447.00
2019-05-01T14:11:20.186Z,97443.00
2019-05-01T14:13:49.573Z,97447.00
2019-05-01T14:16:19.038Z,97440.00
2019-05-01T14:18:48.526Z,97433.00
2019-05-01T14:21:22.221Z,97431.00
2019-05-01T14:23:55.915Z,97418.00
2019-05-01T14:26:25.279Z,97423.00
2019-05-01T14:28:54.649Z,97419.00
2019-05-01T14:31:24.673Z,97410.00
2019-05-01T14:33:54.051Z,97415.00
2019-05-01T14:36:23.444Z,97422.00
2019-05-01T14:38:52.840Z,97411.00
2019-05-01T14:41:22.275Z,97421.00
2019-05-01T14:43:51.721Z,97404.00
2019-05-01T14:46:21.185Z,97405.00
2019-05-01T14:48:50.575Z,97395.00
2019-05-01T14:51:21.754Z,97401.00
2019-05-01T14:53:51.474Z,97399.00
2019-05-01T14:56:20.864Z,97394.00
2019-05-01T14:58:50.883Z,97401.00
2019-05-01T15:01:20.357Z,97404.00
2019-05-01T15:03:49.747Z,97384.00
2019-05-01T15:06:19.624Z,97380.00
2019-05-01T15:08:49.021Z,97385.00
2019-05-01T15:11:18.410Z,97383.00
2019-05-01T15:13:49.436Z,97383.00
2019-05-01T15:16:23.597Z,97390.00
2019-05-01T15:19:00.281Z,97384.00
2019-05-01T15:21:29.650Z,97378.00
2019-05-01T15:23:59.043Z,97376.00
2019-05-01T15:26:31.304Z,97376.00
2019-05-01T15:29:00.837Z,97389.00
2019-05-01T15:31:30.987Z,97374.00
2019-05-01T15:34:00.356Z,97380.00
2019-05-01T15:36:32.424Z,97382.00
2019-05-01T15:39:02.695Z,97385.00
2019-05-01T15:41:33.715Z,97375.00
2019-05-01T15:44:04.727Z,97369.00
2019-05-01T15:46:36.547Z,97370.00
2019-05-01T15:49:05.974Z,97379.00
2019-05-01T15:51:35.351Z,97383.00
2019-05-01T15:54:04.818Z,97368.00
2019-05-01T15:56:34.207Z,97370.00
2019-05-01T15:59:03.581Z,97370.00
2019-05-01T16:01:33.642Z,97373.00
2019-05-01T16:04:04.361Z,97375.00
2019-05-01T16:06:33.720Z,97370.00
2019-05-01T16:09:05.007Z,97370.00
2019-05-01T16:11:52.452Z,97364.00
2019-05-01T16:14:21.833Z,97366.00
2019-05-01T16:16:51.217Z,97362.00
2019-05-01T16:19:20.681Z,97365.00
2019-05-01T16:21:53.212Z,97358.00
2019-05-01T16:24:22.605Z,97360.00
2019-05-01T16:26:51.994Z,97353.00
2019-05-01T16:29:21.881Z,97353.00
2019-05-01T16:31:51.260Z,97352.00
2019-05-01T16:34:20.616Z,97354.00
2019-05-01T16:36:50.061Z,97356.00
2019-05-01T16:39:26.860Z,97354.00
2019-05-01T16:41:56.204Z,97352.00
2019-05-01T16:44:26.322Z,97346.00
2019-05-01T16:46:55.691Z,97351.00
2019-05-01T16:49:25.062Z,97352.00
2019-05-01T16:51:54.540Z,97347.00
2019-05-01T16:54:23.900Z,97342.00
2019-05-01T16:56:53.335Z,97346.00
2019-05-01T16:59:22.790Z,97351.00
2019-05-01T17:01:54.119Z,97338.00
2019-05-01T17:04:32.151Z,97337.00
2019-05-01T17:07:03.172Z,97351.00
2019-05-01T17:09:49.231Z,97346.00
2019-05-01T17:12:20.302Z,97337.00
2019-05-01T17:14:49.664Z,97347.00
2019-05-01T17:17:20.018Z,97338.00
2019-05-01T17:19:49.403Z,97338.00
2019-05-01T17:22:18.755Z,97340.00
2019-05-01T17:24:48.561Z,97349.00
2019-05-01T17:27:19.849Z,97343.00
2019-05-01T17:29:49.216Z,97335.00
2019-05-01T17:32:19.168Z,97340.00
2019-05-01T17:34:48.544Z,97337.00
2019-05-01T17:37:17.929Z,97333.00
2019-05-01T17:39:47.328Z,97332.00
2019-05-01T17:42:16.722Z,97339.00
2019-05-01T17:44:46.102Z,97330.00
2019-05-01T17:47:17.946Z,97346.00
2019-05-01T17:49:46.597Z,97339.00
2019-05-01T17:52:15.961Z,97347.00
2019-05-01T17:54:45.349Z,97339.00
2019-05-01T17:57:14.703Z,97336.00
2019-05-01T17:59:45.704Z,97333.00
2019-05-01T18:02:17.107Z,97335.00
2019-05-01T18:04:50.811Z,97334.00
2019-05-01T18:07:21.011Z,97337.00
2019-05-01T18:09:51.379Z,97326.00
2019-05-01T18:12:23.295Z,97336.00
2019-05-01T18:14:52.687Z,97329.00
2019-05-01T18:17:22.150Z,97325.00
2019-05-01T18:19:51.524Z,97326.00
2019-05-01T18:22:22.513Z,97342.00
2019-05-01T18:25:09.489Z,97333.00
2019-05-01T18:27:56.315Z,97327.00
2019-05-01T18:30:30.397Z,97332.00
2019-05-01T18:32:59.770Z,97338.00
2019-05-01T18:35:32.214Z,97324.00
2019-05-01T18:38:06.157Z,97327.00
2019-05-01T18:40:42.170Z,97334.00
2019-05-01T18:43:11.813Z,97321.00
2019-05-01T18:45:50.822Z,97322.00
2019-05-01T18:48:22.010Z,97327.00
2019-05-01T18:50:55.055Z,97329.00
2019-05-01T18:53:23.763Z,97329.00
2019-05-01T18:55:53.462Z,97327.00
2019-05-01T18:58:23.011Z,97321.00
2019-05-01T19:00:52.520Z,97337.00
2019-05-01T19:03:22.501Z,97343.00
2019-05-01T19:05:52.091Z,97340.00
2019-05-01T19:08:21.518Z,97332.00
2019-05-01T19:10:51.025Z,97337.00
2019-05-01T19:13:20.476Z,97348.00
2019-05-01T19:15:49.870Z,97345.00
2019-05-01T19:18:19.729Z,97337.00
2019-05-01T19:20:59.427Z,97348.00
2019-05-01T19:23:22.358Z,97346.00
2019-05-01T19:25:51.687Z,97342.00
2019-05-01T19:28:21.150Z,97343.00
2019-05-01T19:30:52.287Z,97337.00
2019-05-01T19:33:22.382Z,97348.00
2019-05-01T19:35:51.786Z,97329.00
2019-05-01T19:38:21.480Z,97340.00
2019-05-01T19:40:50.951Z,97331.00
2019-05-01T19:43:20.332Z,97333.00
2019-05-01T19:45:49.794Z,97342.00
2019-05-01T19:48:19.256Z,97327.00
2019-05-01T19:50:49.594Z,97339.00
2019-05-01T19:53:19.140Z,97342.00
2019-05-01T19:55:48.597Z,97340.00
2019-05-01T19:58:17.959Z,97340.00
2019-05-01T20:00:54.149Z,97344.00
2019-05-01T20:03:23.680Z,97343.00
2019-05-01T20:05:53.126Z,97336.00
2019-05-01T20:08:22.617Z,97338.00
2019-05-01T20:10:52.807Z,97345.00
2019-05-01T20:13:25.092Z,97346.00
2019-05-01T20:15:54.614Z,97336.00
2019-05-01T20:18:24.153Z,97350.00
2019-05-01T20:20:53.509Z,97335.00
2019-05-01T20:23:26.048Z,97351.00
2019-05-01T20:25:55.984Z,97341.00
2019-05-01T20:28:25.581Z,97338.00
2019-05-01T20:30:54.952Z,97343.00
2019-05-01T20:33:24.340Z,97347.00
2019-05-01T20:35:53.731Z,97329.00
2019-05-01T20:38:23.112Z,97338.00
2019-05-01T20:40:52.615Z,97340.00
2019-05-01T20:43:21.989Z,97332.00
2019-05-01T20:45:51.423Z,97329.00
2019-05-01T20:48:23.662Z,97332.00
2019-05-01T20:50:52.294Z,97336.00
2019-05-01T20:53:21.723Z,97325.00
2019-05-01T20:55:52.757Z,97336.00
2019-05-01T20:58:22.395Z,97333.00
2019-05-01T21:00:54.772Z,97321.00
2019-05-01T21:03:24.481Z,97326.00
2019-05-01T21:06:02.889Z,97326.00
2019-05-01T21:08:39.291Z,97321.00
2019-05-01T21:11:11.246Z,97317.00
2019-05-01T21:13:43.512Z,97326.00
2019-05-01T21:16:14.242Z,97325.00
2019-05-01T21:18:43.610Z,97318.00
2019-05-01T21:21:14.439Z,97320.00
2019-05-01T21:23:48.103Z,97327.00
2019-05-01T21:26:14.939Z,97322.00
2019-05-01T21:28:44.972Z,97324.00
2019-05-01T21:31:14.488Z,97329.00
2019-05-01T21:33:46.403Z,97329.00
2019-05-01T21:36:15.083Z,97327.00
2019-05-01T21:38:44.463Z,97318.00
2019-05-01T21:41:14.997Z,97320.00
2019-05-01T21:43:44.962Z,97314.00
2019-05-01T21:46:14.335Z,97303.00
2019-05-01T21:48:43.702Z,97315.00
2019-05-01T21:51:13.103Z,97315.00
2019-05-01T21:53:46.263Z,97319.00
2019-05-01T21:56:13.563Z,97321.00
2019-05-01T21:58:45.211Z,97307.00
2019-05-01T22:01:14.817Z,97308.00
2019-05-01T22:03:44.179Z,97311.00
2019-05-01T22:06:15.361Z,97304.00
2019-05-01T22:08:44.647Z,97306.00
2019-05-01T22:11:14.011Z,97308.00
2019-05-01T22:13:43.413Z,97304.00
2019-05-01T22:16:18.432Z,97311.00
2019-05-01T22:18:57.831Z,97304.00
2019-05-01T22:21:28.924Z,97306.00
2019-05-01T22:24:12.075Z,97291.00
2019-05-01T22:26:43.065Z,97293.00
2019-05-01T22:29:14.211Z,97296.00
2019-05-01T22:31:52.818Z,97289.00
2019-05-01T22:34:23.896Z,97294.00
2019-05-01T22:36:53.338Z,97286.00
2019-05-01T22:39:24.912Z,97288.00
2019-05-01T22:41:54.290Z,97285.00
2019-05-01T22:44:23.664Z,97287.00
2019-05-01T22:46:53.064Z,97278.00
2019-05-01T22:49:22.450Z,97267.00
2019-05-01T22:51:51.921Z,97278.00
2019-05-01T22:54:21.392Z,97278.00
2019-05-01T22:56:50.765Z,97274.00
2019-05-01T22:59:20.132Z,97260.00
2019-05-01T23:01:53.044Z,97266.00
2019-05-01T23:04:23.043Z,97274.00
2019-05-01T23:06:52.500Z,97263.00
2019-05-01T23:09:27.859Z,97256.00
2019-05-01T23:11:54.460Z,97255.00
2019-05-01T23:14:25.722Z,97269.00
2019-05-01T23:16:58.667Z,97262.00
2019-05-01T23:19:29.674Z,97248.00
2019-05-01T23:22:00.635Z,97273.00
2019-05-01T23:24:30.039Z,97255.00
2019-05-01T23:26:59.396Z,97264.00
2019-05-01T23:29:28.791Z,97248.00
2019-05-01T23:31:59.052Z,97255.00
2019-05-01T23:34:28.410Z,97264.00
2019-05-01T23:36:57.797Z,97245.00
2019-05-01T23:39:27.179Z,97228.00
2019-05-01T23:41:56.554Z,97238.00
2019-05-01T23:44:25.962Z,97231.00
2019-05-01T23:46:55.340Z,97238.00
2019-05-01T23:49:24.707Z,97235.00
2019-05-01T23:51:54.087Z,97232.00
2019-05-01T23:54:23.879Z,97244.00
2019-05-01T23:56:53.260Z,97233.00
2019-05-01T23:59:22.606Z,97241.00
